createdAt,value
2019-03-01T00:01:59.505Z,94.60
2019-03-01T00:04:56.452Z,94.50
2019-03-01T00:08:18.863Z,94.50
2019-03-01T00:11:41.093Z,94.70
2019-03-01T00:15:06.404Z,94.60
2019-03-01T00:18:25.884Z,94.60
2019-03-01T00:21:15.731Z,94.60
2019-03-01T00:24:19.301Z,94.60
2019-03-01T00:27:33.562Z,94.60
2019-03-01T00:30:47.802Z,94.60
2019-03-01T00:34:04.046Z,94.80
2019-03-01T00:37:19.611Z,94.70
2019-03-01T00:40:17.704Z,94.70
2019-03-01T00:43:25.679Z,94.70
2019-03-01T00:45:55.065Z,94.70
2019-03-01T00:48:24.397Z,94.90
2019-03-01T00:50:53.662Z,94.90
2019-03-01T00:53:22.979Z,95.00
2019-03-01T00:55:52.312Z,95.00
2019-03-01T00:58:21.599Z,95.10
2019-03-01T01:00:50.976Z,95.30
2019-03-01T01:03:20.341Z,95.70
2019-03-01T01:05:50.305Z,95.60
2019-03-01T01:08:19.729Z,95.60
2019-03-01T01:10:49.080Z,95.80
2019-03-01T01:13:18.468Z,95.80
2019-03-01T01:15:47.812Z,95.80
2019-03-01T01:18:17.149Z,95.90
2019-03-01T01:20:46.438Z,95.80
2019-03-01T01:23:15.792Z,96.00
2019-03-01T01:25:45.209Z,96.10
2019-03-01T01:28:14.586Z,96.30
2019-03-01T01:30:43.953Z,96.30
2019-03-01T01:33:13.357Z,96.40
2019-03-01T01:35:42.870Z,96.50
2019-03-01T01:38:12.246Z,96.60
2019-03-01T01:40:41.598Z,96.70
2019-03-01T01:43:10.869Z,96.70
2019-03-01T01:45:40.265Z,96.90
2019-03-01T01:48:09.588Z,97.10
2019-03-01T01:50:39.166Z,97.20
2019-03-01T01:53:08.484Z,97.30
2019-03-01T01:55:37.765Z,97.50
2019-03-01T01:58:07.380Z,97.50
2019-03-01T02:00:36.758Z,97.80
2019-03-01T02:03:06.130Z,97.70
2019-03-01T02:05:35.523Z,97.90
2019-03-01T02:08:04.868Z,97.90
2019-03-01T02:10:34.224Z,97.80
2019-03-01T02:13:03.571Z,97.90
2019-03-01T02:15:32.919Z,98.00
2019-03-01T02:18:02.363Z,98.10
2019-03-01T02:20:31.716Z,98.10
2019-03-01T02:23:01.071Z,98.10
2019-03-01T02:25:30.439Z,98.10
2019-03-01T02:27:59.846Z,98.10
2019-03-01T02:30:29.503Z,98.10
2019-03-01T02:32:58.785Z,98.20
2019-03-01T02:35:28.606Z,98.20
2019-03-01T02:37:58.279Z,98.30
2019-03-01T02:40:27.853Z,98.20
2019-03-01T02:42:57.957Z,98.10
2019-03-01T02:45:27.333Z,98.10
2019-03-01T02:47:56.672Z,98.10
2019-03-01T02:50:26.547Z,98.00
2019-03-01T02:52:55.889Z,97.90
2019-03-01T02:55:25.225Z,97.90
2019-03-01T02:57:54.591Z,98.00
2019-03-01T03:00:25.515Z,97.90
2019-03-01T03:02:54.857Z,97.90
2019-03-01T03:05:24.300Z,97.90
2019-03-01T03:07:55.497Z,97.80
2019-03-01T03:10:24.855Z,97.70
2019-03-01T03:12:59.427Z,97.60
2019-03-01T03:15:40.782Z,97.70
2019-03-01T03:18:09.992Z,97.80
2019-03-01T03:20:39.371Z,97.80
2019-03-01T03:23:08.802Z,97.80
2019-03-01T03:25:38.150Z,97.80
2019-03-01T03:28:07.851Z,97.70
2019-03-01T03:30:37.255Z,97.70
2019-03-01T03:33:06.639Z,97.60
2019-03-01T03:35:35.966Z,97.60
2019-03-01T03:38:06.109Z,97.50
2019-03-01T03:40:35.494Z,97.50
2019-03-01T03:43:04.962Z,97.50
2019-03-01T03:45:34.303Z,97.40
2019-03-01T03:48:03.684Z,97.50
2019-03-01T03:50:33.088Z,97.60
2019-03-01T03:53:02.400Z,97.50
2019-03-01T03:55:31.785Z,97.40
2019-03-01T03:58:01.101Z,97.40
2019-03-01T04:00:30.443Z,97.40
2019-03-01T04:02:59.712Z,97.40
2019-03-01T04:05:29.097Z,97.50
2019-03-01T04:07:58.525Z,97.40
2019-03-01T04:10:27.879Z,97.60
2019-03-01T04:12:57.245Z,97.50
2019-03-01T04:15:26.598Z,97.40
2019-03-01T04:17:56.421Z,97.30
2019-03-01T04:20:25.761Z,97.30
2019-03-01T04:22:55.504Z,97.30
2019-03-01T04:25:24.856Z,97.40
2019-03-01T04:27:54.227Z,97.40
2019-03-01T04:30:23.555Z,97.50
2019-03-01T04:32:52.904Z,97.70
2019-03-01T04:35:22.294Z,97.70
2019-03-01T04:37:52.677Z,97.70
2019-03-01T04:40:22.037Z,97.80
2019-03-01T04:42:51.423Z,97.80
2019-03-01T04:45:20.850Z,97.90
2019-03-01T04:47:50.227Z,98.00
2019-03-01T04:50:19.502Z,97.90
2019-03-01T04:52:48.828Z,98.00
2019-03-01T04:55:20.315Z,97.90
2019-03-01T04:57:49.667Z,97.80
2019-03-01T05:00:20.848Z,97.70
2019-03-01T05:02:50.231Z,97.50
2019-03-01T05:05:19.584Z,97.50
2019-03-01T05:07:48.969Z,97.60
2019-03-01T05:10:18.639Z,97.60
2019-03-01T05:12:48.119Z,97.60
2019-03-01T05:15:19.250Z,97.50
2019-03-01T05:17:48.595Z,97.60
2019-03-01T05:20:17.937Z,97.60
2019-03-01T05:22:47.331Z,97.50
2019-03-01T05:25:16.675Z,97.50
2019-03-01T05:27:46.064Z,97.50
2019-03-01T05:30:15.742Z,97.40
2019-03-01T05:32:47.578Z,97.40
2019-03-01T05:35:17.149Z,97.40
2019-03-01T05:37:46.492Z,97.30
2019-03-01T05:40:15.868Z,97.20
2019-03-01T05:42:45.263Z,97.30
2019-03-01T05:45:17.099Z,97.30
2019-03-01T05:47:46.524Z,97.30
2019-03-01T05:50:15.907Z,97.30
2019-03-01T05:52:45.284Z,97.30
2019-03-01T05:55:14.884Z,97.20
2019-03-01T05:58:23.596Z,97.30
2019-03-01T06:00:53.212Z,97.20
2019-03-01T06:03:40.796Z,96.90
2019-03-01T06:06:10.486Z,96.80
2019-03-01T06:09:22.625Z,96.80
2019-03-01T06:12:04.776Z,96.80
2019-03-01T06:15:09.046Z,96.90
2019-03-01T06:18:12.781Z,96.70
2019-03-01T06:21:41.249Z,96.80
2019-03-01T06:24:29.731Z,96.70
2019-03-01T06:27:47.231Z,96.60
2019-03-01T06:30:40.980Z,96.80
2019-03-01T06:34:00.266Z,96.70
2019-03-01T06:36:35.425Z,96.70
2019-03-01T06:39:39.432Z,96.60
2019-03-01T06:42:32.188Z,96.60
2019-03-01T06:45:13.026Z,96.50
2019-03-01T06:47:44.656Z,96.50
2019-03-01T06:50:33.046Z,96.30
2019-03-01T06:53:02.421Z,96.30
2019-03-01T06:55:43.290Z,96.40
2019-03-01T06:58:33.052Z,96.30
2019-03-01T07:01:18.775Z,96.10
2019-03-01T07:03:53.749Z,96.00
2019-03-01T07:06:24.028Z,95.90
2019-03-01T07:08:53.395Z,95.80
2019-03-01T07:11:23.124Z,95.80
2019-03-01T07:13:52.476Z,95.90
2019-03-01T07:16:21.815Z,95.80
2019-03-01T07:18:51.136Z,95.70
2019-03-01T07:21:20.504Z,95.50
2019-03-01T07:23:49.849Z,95.30
2019-03-01T07:26:19.278Z,95.30
2019-03-01T07:28:49.021Z,95.30
2019-03-01T07:31:18.388Z,95.30
2019-03-01T07:33:48.395Z,95.20
2019-03-01T07:36:17.740Z,95.10
2019-03-01T07:38:47.101Z,94.90
2019-03-01T07:41:16.480Z,94.70
2019-03-01T07:43:45.871Z,94.70
2019-03-01T07:46:15.230Z,94.80
2019-03-01T07:48:44.967Z,94.90
2019-03-01T07:51:14.330Z,94.80
2019-03-01T07:53:43.676Z,94.70
2019-03-01T07:56:13.052Z,94.50
2019-03-01T07:58:42.446Z,94.50
2019-03-01T08:01:11.817Z,94.60
2019-03-01T08:03:41.189Z,94.40
2019-03-01T08:06:13.423Z,94.40
2019-03-01T08:08:41.845Z,94.40
2019-03-01T08:11:11.196Z,94.30
2019-03-01T08:13:40.891Z,94.10
2019-03-01T08:16:10.226Z,94.00
2019-03-01T08:18:40.150Z,93.80
2019-03-01T08:21:11.503Z,93.90
2019-03-01T08:23:40.931Z,94.00
2019-03-01T08:26:10.243Z,93.80
2019-03-01T08:28:39.624Z,93.80
2019-03-01T08:31:09.924Z,93.50
2019-03-01T08:33:42.175Z,93.30
2019-03-01T08:36:10.395Z,93.60
2019-03-01T08:38:39.784Z,93.40
2019-03-01T08:41:09.143Z,93.20
2019-03-01T08:43:38.547Z,93.30
2019-03-01T08:46:09.537Z,93.50
2019-03-01T08:48:38.931Z,93.60
2019-03-01T08:51:08.329Z,93.50
2019-03-01T08:53:37.687Z,93.50
2019-03-01T08:56:07.081Z,93.30
2019-03-01T08:58:37.651Z,93.30
2019-03-01T09:01:09.792Z,93.30
2019-03-01T09:03:43.492Z,93.20
2019-03-01T09:06:12.781Z,93.30
2019-03-01T09:08:43.031Z,93.20
2019-03-01T09:11:13.961Z,93.00
2019-03-01T09:13:43.300Z,92.80
2019-03-01T09:16:13.270Z,92.80
2019-03-01T09:18:42.635Z,92.90
2019-03-01T09:21:12.921Z,92.80
2019-03-01T09:23:42.992Z,93.00
2019-03-01T09:26:12.367Z,92.90
2019-03-01T09:28:42.578Z,92.70
2019-03-01T09:31:11.918Z,92.80
2019-03-01T09:33:41.269Z,92.60
2019-03-01T09:36:17.555Z,92.80
2019-03-01T09:38:45.655Z,93.10
2019-03-01T09:41:15.065Z,92.90
2019-03-01T09:43:44.847Z,92.60
2019-03-01T09:46:14.180Z,92.00
2019-03-01T09:48:45.616Z,92.00
2019-03-01T09:51:15.910Z,91.90
2019-03-01T09:53:45.368Z,91.80
2019-03-01T09:56:14.735Z,91.50
2019-03-01T09:58:44.399Z,91.50
2019-03-01T10:01:16.130Z,91.40
2019-03-01T10:03:45.924Z,91.50
2019-03-01T10:06:15.284Z,91.20
2019-03-01T10:08:44.655Z,91.00
2019-03-01T10:11:13.929Z,91.00
2019-03-01T10:13:43.306Z,90.80
2019-03-01T10:16:13.392Z,91.10
2019-03-01T10:18:42.690Z,90.80
2019-03-01T10:21:12.028Z,91.00
2019-03-01T10:23:42.575Z,90.90
2019-03-01T10:26:11.857Z,91.00
2019-03-01T10:28:41.121Z,90.60
2019-03-01T10:31:10.504Z,90.30
2019-03-01T10:33:39.876Z,90.00
2019-03-01T10:36:09.314Z,90.00
2019-03-01T10:38:38.729Z,89.70
2019-03-01T10:41:08.090Z,88.90
2019-03-01T10:43:37.461Z,89.40
2019-03-01T10:46:06.765Z,89.30
2019-03-01T10:48:36.121Z,88.40
2019-03-01T10:51:05.611Z,88.20
2019-03-01T10:53:34.947Z,88.10
2019-03-01T10:56:04.224Z,86.80
2019-03-01T10:58:33.869Z,86.00
2019-03-01T11:01:03.891Z,85.90
2019-03-01T11:03:33.276Z,86.60
2019-03-01T11:06:02.620Z,86.70
2019-03-01T11:08:31.927Z,86.20
2019-03-01T11:11:01.202Z,86.20
2019-03-01T11:13:30.572Z,86.00
2019-03-01T11:16:00.155Z,86.00
2019-03-01T11:18:29.538Z,86.10
2019-03-01T11:20:58.882Z,84.30
2019-03-01T11:23:28.224Z,83.90
2019-03-01T11:25:57.566Z,84.60
2019-03-01T11:28:26.950Z,84.10
2019-03-01T11:30:56.415Z,83.10
2019-03-01T11:33:25.756Z,83.10
2019-03-01T11:35:55.151Z,83.00
2019-03-01T11:38:24.836Z,82.50
2019-03-01T11:40:55.811Z,82.00
2019-03-01T11:43:25.280Z,82.00
2019-03-01T11:45:54.629Z,81.60
2019-03-01T11:48:23.999Z,81.70
2019-03-01T11:50:53.390Z,81.50
2019-03-01T11:53:22.768Z,79.60
2019-03-01T11:55:52.056Z,80.80
2019-03-01T11:58:21.430Z,79.70
2019-03-01T12:00:52.191Z,79.30
2019-03-01T12:03:21.963Z,78.60
2019-03-01T12:05:51.271Z,78.60
2019-03-01T12:08:20.637Z,78.60
2019-03-01T12:10:50.065Z,77.90
2019-03-01T12:13:19.695Z,78.20
2019-03-01T12:15:49.077Z,77.20
2019-03-01T12:18:18.912Z,77.20
2019-03-01T12:20:48.294Z,78.10
2019-03-01T12:23:17.719Z,77.60
2019-03-01T12:25:47.068Z,76.00
2019-03-01T12:28:16.462Z,76.90
2019-03-01T12:30:45.849Z,76.10
2019-03-01T12:33:15.269Z,75.60
2019-03-01T12:35:45.062Z,75.60
2019-03-01T12:38:15.101Z,76.10
2019-03-01T12:40:44.533Z,76.40
2019-03-01T12:43:13.905Z,76.00
2019-03-01T12:45:43.307Z,76.70
2019-03-01T12:48:12.713Z,77.20
2019-03-01T12:50:42.094Z,76.60
2019-03-01T12:53:11.561Z,77.60
2019-03-01T12:55:40.935Z,75.80
2019-03-01T12:58:19.017Z,76.90
2019-03-01T13:00:41.368Z,76.80
2019-03-01T13:03:10.917Z,76.60
2019-03-01T13:05:40.295Z,76.80
2019-03-01T13:08:12.570Z,77.70
2019-03-01T13:10:41.462Z,77.30
2019-03-01T13:13:11.709Z,75.20
2019-03-01T13:15:41.139Z,75.50
2019-03-01T13:18:15.772Z,75.50
2019-03-01T13:20:41.636Z,76.20
2019-03-01T13:23:11.007Z,76.40
2019-03-01T13:25:40.679Z,76.60
2019-03-01T13:28:10.051Z,77.40
2019-03-01T13:30:40.523Z,77.50
2019-03-01T13:33:10.238Z,78.10
2019-03-01T13:35:41.067Z,78.70
2019-03-01T13:38:10.488Z,79.10
2019-03-01T13:40:40.246Z,79.00
2019-03-01T13:43:09.678Z,80.00
2019-03-01T13:45:40.096Z,80.90
2019-03-01T13:48:09.448Z,81.10
2019-03-01T13:50:41.606Z,80.70
2019-03-01T13:53:10.040Z,80.50
2019-03-01T13:55:39.489Z,80.90
2019-03-01T13:58:09.764Z,81.70
2019-03-01T14:00:39.143Z,82.10
2019-03-01T14:03:08.617Z,81.90
2019-03-01T14:05:38.121Z,82.70
2019-03-01T14:08:09.252Z,83.20
2019-03-01T14:10:41.909Z,83.50
2019-03-01T14:13:11.195Z,83.50
2019-03-01T14:15:40.975Z,83.70
2019-03-01T14:18:10.824Z,83.90
2019-03-01T14:20:40.233Z,84.30
2019-03-01T14:23:09.599Z,84.50
2019-03-01T14:25:41.636Z,84.80
2019-03-01T14:28:12.214Z,84.30
2019-03-01T14:30:41.732Z,84.60
2019-03-01T14:33:11.183Z,84.50
2019-03-01T14:35:40.556Z,84.80
2019-03-01T14:38:09.917Z,84.80
2019-03-01T14:40:39.820Z,84.50
2019-03-01T14:43:09.232Z,85.10
2019-03-01T14:45:41.792Z,85.30
2019-03-01T14:48:09.729Z,85.60
2019-03-01T14:50:40.002Z,86.30
2019-03-01T14:53:09.891Z,86.80
2019-03-01T14:55:42.371Z,86.80
2019-03-01T14:58:30.685Z,86.60
2019-03-01T15:01:33.069Z,86.70
2019-03-01T15:04:02.447Z,87.00
2019-03-01T15:06:31.838Z,87.00
2019-03-01T15:09:01.514Z,87.40
2019-03-01T15:11:30.912Z,87.80
2019-03-01T15:14:00.741Z,88.20
2019-03-01T15:16:30.102Z,88.60
2019-03-01T15:19:00.581Z,88.70
2019-03-01T15:21:30.066Z,88.30
2019-03-01T15:24:00.089Z,88.20
2019-03-01T15:26:31.210Z,87.80
2019-03-01T15:29:00.612Z,87.40
2019-03-01T15:31:29.909Z,87.90
2019-03-01T15:33:59.553Z,88.10
2019-03-01T15:36:29.418Z,88.20
2019-03-01T15:38:58.721Z,88.30
2019-03-01T15:41:28.153Z,88.00
2019-03-01T15:43:57.618Z,87.70
2019-03-01T15:46:27.461Z,88.10
2019-03-01T15:48:57.204Z,88.40
2019-03-01T15:51:26.661Z,88.70
2019-03-01T15:53:57.605Z,89.10
2019-03-01T15:56:27.354Z,89.40
2019-03-01T15:58:56.756Z,90.00
2019-03-01T16:01:26.153Z,90.20
2019-03-01T16:03:57.269Z,90.50
2019-03-01T16:06:26.655Z,90.50
2019-03-01T16:08:56.052Z,90.60
2019-03-01T16:11:26.715Z,90.50
2019-03-01T16:13:56.089Z,90.50
2019-03-01T16:16:25.449Z,90.30
2019-03-01T16:18:54.825Z,90.30
2019-03-01T16:21:24.277Z,90.20
2019-03-01T16:23:53.776Z,90.30
2019-03-01T16:26:29.643Z,90.30
2019-03-01T16:28:54.189Z,90.40
2019-03-01T16:31:23.653Z,90.30
2019-03-01T16:33:53.091Z,90.30
2019-03-01T16:36:30.231Z,90.30
2019-03-01T16:38:59.740Z,90.50
2019-03-01T16:41:29.619Z,90.60
2019-03-01T16:44:01.408Z,90.70
2019-03-01T16:46:31.427Z,90.80
2019-03-01T16:49:01.927Z,90.90
2019-03-01T16:51:31.373Z,90.80
2019-03-01T16:54:02.344Z,90.90
2019-03-01T16:56:34.637Z,91.00
2019-03-01T16:59:03.839Z,91.00
2019-03-01T17:01:33.857Z,91.10
2019-03-01T17:04:03.331Z,91.20
2019-03-01T17:06:34.055Z,91.50
2019-03-01T17:09:04.517Z,91.70
2019-03-01T17:11:33.937Z,91.70
2019-03-01T17:14:03.608Z,91.90
2019-03-01T17:16:32.998Z,91.90
2019-03-01T17:19:02.433Z,91.90
2019-03-01T17:21:31.833Z,92.00
2019-03-01T17:24:01.284Z,92.00
2019-03-01T17:26:30.816Z,92.20
2019-03-01T17:29:02.978Z,92.20
2019-03-01T17:31:31.634Z,92.30
2019-03-01T17:34:01.394Z,92.50
2019-03-01T17:36:30.834Z,92.50
2019-03-01T17:39:00.457Z,92.60
2019-03-01T17:41:30.687Z,92.70
2019-03-01T17:44:00.155Z,92.90
2019-03-01T17:46:29.860Z,93.00
2019-03-01T17:49:00.584Z,93.00
2019-03-01T17:51:30.192Z,93.30
2019-03-01T17:53:59.611Z,93.40
2019-03-01T17:56:29.335Z,93.50
2019-03-01T17:58:59.987Z,93.60
2019-03-01T18:01:30.800Z,93.60
2019-03-01T18:04:01.944Z,93.80
2019-03-01T18:06:31.348Z,93.90
2019-03-01T18:09:00.777Z,94.00
2019-03-01T18:11:30.188Z,94.00
2019-03-01T18:14:00.802Z,94.20
2019-03-01T18:16:30.746Z,94.20
2019-03-01T18:19:00.067Z,94.40
2019-03-01T18:21:29.661Z,94.40
2019-03-01T18:23:59.071Z,94.40
2019-03-01T18:26:28.502Z,94.60
2019-03-01T18:29:00.916Z,94.70
2019-03-01T18:31:34.480Z,94.90
2019-03-01T18:34:03.342Z,94.80
2019-03-01T18:36:34.243Z,94.90
2019-03-01T18:39:06.951Z,94.90
2019-03-01T18:41:35.482Z,94.80
2019-03-01T18:44:04.877Z,95.00
2019-03-01T18:46:34.241Z,95.10
2019-03-01T18:49:03.667Z,95.40
2019-03-01T18:51:33.042Z,95.50
2019-03-01T18:54:04.013Z,95.40
2019-03-01T18:56:33.535Z,95.60
2019-03-01T18:59:05.016Z,95.50
2019-03-01T19:01:34.502Z,95.50
2019-03-01T19:04:03.954Z,95.60
2019-03-01T19:06:33.320Z,95.60
2019-03-01T19:09:02.826Z,95.60
2019-03-01T19:11:34.650Z,95.60
2019-03-01T19:14:03.913Z,95.50
2019-03-01T19:16:33.387Z,95.50
2019-03-01T19:19:03.074Z,95.40
2019-03-01T19:21:32.851Z,95.40
2019-03-01T19:24:04.774Z,95.30
2019-03-01T19:26:36.544Z,95.30
2019-03-01T19:29:05.656Z,95.60
2019-03-01T19:31:35.130Z,95.70
2019-03-01T19:34:05.338Z,95.70
2019-03-01T19:36:35.578Z,95.80
2019-03-01T19:39:10.657Z,95.80
2019-03-01T19:41:40.121Z,95.80
2019-03-01T19:44:11.028Z,96.00
2019-03-01T19:46:40.844Z,95.90
2019-03-01T19:49:12.863Z,95.90
2019-03-01T19:51:41.759Z,95.90
2019-03-01T19:54:11.344Z,96.00
2019-03-01T19:56:40.831Z,96.00
2019-03-01T19:59:10.278Z,95.90
2019-03-01T20:01:39.773Z,96.00
2019-03-01T20:04:09.240Z,96.00
2019-03-01T20:06:39.747Z,96.00
2019-03-01T20:09:09.567Z,96.00
2019-03-01T20:11:39.124Z,96.20
2019-03-01T20:14:08.569Z,96.10
2019-03-01T20:16:38.355Z,96.10
2019-03-01T20:19:08.232Z,96.00
2019-03-01T20:21:37.689Z,96.00
2019-03-01T20:24:07.099Z,95.80
2019-03-01T20:26:36.599Z,95.80
2019-03-01T20:29:06.306Z,95.80
2019-03-01T20:31:40.469Z,95.70
2019-03-01T20:34:08.387Z,95.70
2019-03-01T20:36:37.778Z,95.80
2019-03-01T20:39:07.889Z,95.70
2019-03-01T20:41:40.062Z,95.50
2019-03-01T20:44:08.711Z,95.30
2019-03-01T20:46:40.046Z,95.30
2019-03-01T20:49:09.305Z,95.30
2019-03-01T20:51:38.689Z,95.30
2019-03-01T20:54:08.590Z,95.20
2019-03-01T20:56:37.953Z,95.30
2019-03-01T20:59:07.333Z,95.30
2019-03-01T21:01:37.311Z,95.50
2019-03-01T21:04:07.758Z,95.40
2019-03-01T21:06:37.392Z,95.40
2019-03-01T21:09:08.649Z,95.50
2019-03-01T21:11:41.597Z,95.60
2019-03-01T21:14:10.563Z,95.60
2019-03-01T21:16:41.457Z,95.40
2019-03-01T21:19:11.061Z,95.30
2019-03-01T21:21:40.498Z,95.30
2019-03-01T21:24:10.303Z,95.20
2019-03-01T21:26:39.690Z,95.20
2019-03-01T21:29:12.423Z,95.10
2019-03-01T21:31:40.254Z,95.20
2019-03-01T21:34:09.595Z,95.20
2019-03-01T21:36:38.968Z,95.20
2019-03-01T21:39:08.704Z,95.20
2019-03-01T21:41:38.052Z,95.20
2019-03-01T21:44:10.212Z,95.20
2019-03-01T21:46:39.035Z,95.20
2019-03-01T21:49:08.434Z,95.20
2019-03-01T21:51:37.856Z,95.10
2019-03-01T21:54:07.264Z,95.00
2019-03-01T21:56:39.538Z,95.00
2019-03-01T21:59:08.102Z,95.10
2019-03-01T22:01:41.412Z,95.10
2019-03-01T22:04:09.858Z,95.00
2019-03-01T22:06:39.210Z,95.00
2019-03-01T22:09:08.879Z,94.80
2019-03-01T22:11:38.231Z,94.70
2019-03-01T22:14:10.832Z,94.70
2019-03-01T22:16:39.521Z,94.70
2019-03-01T22:19:08.917Z,94.60
2019-03-01T22:21:38.401Z,94.40
2019-03-01T22:24:08.119Z,94.10
2019-03-01T22:26:37.500Z,94.00
2019-03-01T22:29:08.801Z,94.00
2019-03-01T22:31:39.665Z,93.90
2019-03-01T22:34:10.124Z,93.80
2019-03-01T22:36:39.607Z,93.70
2019-03-01T22:39:08.995Z,93.60
2019-03-01T22:41:39.307Z,93.50
2019-03-01T22:44:09.422Z,93.20
2019-03-01T22:46:38.789Z,93.00
2019-03-01T22:49:08.173Z,92.50
2019-03-01T22:51:37.520Z,92.00
2019-03-01T22:54:06.990Z,91.70
2019-03-01T22:56:36.604Z,91.20
2019-03-01T22:59:08.608Z,90.80
2019-03-01T23:01:42.482Z,90.20
2019-03-01T23:04:13.538Z,90.10
2019-03-01T23:06:43.744Z,89.60
2019-03-01T23:09:16.652Z,89.40
2019-03-01T23:11:46.022Z,89.20
2019-03-01T23:14:15.368Z,89.70
2019-03-01T23:16:44.738Z,88.80
2019-03-01T23:19:16.128Z,87.20
2019-03-01T23:21:45.436Z,86.80
2019-03-01T23:24:14.849Z,85.80
2019-03-01T23:26:44.214Z,86.20
2019-03-01T23:29:15.571Z,85.00
2019-03-01T23:31:44.626Z,85.10
2019-03-01T23:34:14.024Z,84.40
2019-03-01T23:36:43.707Z,83.70
2019-03-01T23:39:13.090Z,83.70
2019-03-01T23:41:43.524Z,83.70
2019-03-01T23:44:13.463Z,83.30
2019-03-01T23:46:42.843Z,83.60
2019-03-01T23:49:12.175Z,83.40
2019-03-01T23:51:42.558Z,83.30
2019-03-01T23:54:12.577Z,83.70
2019-03-01T23:56:41.934Z,84.20
2019-03-01T23:59:11.317Z,84.00
